createdAt,value
2022-12-22T00:00:42.462Z,59.42
2022-12-22T00:06:02.490Z,58.90
2022-12-22T00:11:28.769Z,59.33
2022-12-22T00:16:54.771Z,59.20
2022-12-22T00:22:19.697Z,59.56
2022-12-22T00:27:48.121Z,59.57
2022-12-22T00:33:08.309Z,59.38
2022-12-22T00:38:39.486Z,59.33
2022-12-22T00:43:59.735Z,59.09
2022-12-22T00:49:20.674Z,59.42
2022-12-22T00:54:41.925Z,59.36
2022-12-22T01:00:02.342Z,58.88
2022-12-22T01:05:22.710Z,59.19
2022-12-22T01:10:44.863Z,58.83
2022-12-22T01:16:05.213Z,59.16
2022-12-22T01:21:25.447Z,58.67
2022-12-22T01:26:46.133Z,58.93
2022-12-22T01:32:06.343Z,59.55
2022-12-22T01:37:26.599Z,59.19
2022-12-22T01:42:47.330Z,58.99
2022-12-22T01:48:07.564Z,59.63
2022-12-22T01:53:33.517Z,59.14
2022-12-22T01:58:58.871Z,58.75
2022-12-22T02:04:19.888Z,59.17
2022-12-22T02:10:02.894Z,58.63
2022-12-22T02:15:36.627Z,59.42
2022-12-22T02:21:12.433Z,59.38
2022-12-22T02:26:46.989Z,59.02
2022-12-22T02:32:07.029Z,59.21
2022-12-22T02:37:46.200Z,59.18
2022-12-22T02:43:48.072Z,58.90
2022-12-22T02:49:18.903Z,58.97
2022-12-22T02:54:41.283Z,58.84
2022-12-22T03:00:01.260Z,59.18
2022-12-22T03:05:21.578Z,58.87
2022-12-22T03:10:41.707Z,58.83
2022-12-22T03:16:01.903Z,58.81
2022-12-22T03:21:22.108Z,58.66
2022-12-22T03:26:23.827Z,58.38
2022-12-22T03:31:25.520Z,58.96
2022-12-22T03:36:27.280Z,58.94
2022-12-22T03:41:47.507Z,58.58
2022-12-22T03:46:49.087Z,58.77
2022-12-22T03:51:51.992Z,58.88
2022-12-22T03:56:54.366Z,58.66
2022-12-22T04:01:56.031Z,58.51
2022-12-22T04:06:58.202Z,58.98
2022-12-22T04:12:18.448Z,58.91
2022-12-22T04:17:19.969Z,58.93
2022-12-22T04:22:21.515Z,58.82
2022-12-22T04:27:23.027Z,58.95
2022-12-22T04:32:24.533Z,58.65
2022-12-22T04:37:26.290Z,58.57
2022-12-22T04:42:27.876Z,59.13
2022-12-22T04:47:29.367Z,58.60
2022-12-22T04:52:30.896Z,58.93
2022-12-22T04:57:38.614Z,59.19
2022-12-22T05:02:42.035Z,59.04
2022-12-22T05:07:44.059Z,59.10
2022-12-22T05:12:54.547Z,58.53
2022-12-22T05:17:57.070Z,59.15
2022-12-22T05:22:58.788Z,58.94
2022-12-22T05:28:00.268Z,59.30
2022-12-22T05:33:02.102Z,58.93
2022-12-22T05:38:03.677Z,59.46
2022-12-22T05:43:05.737Z,59.09
2022-12-22T05:48:07.267Z,59.53
2022-12-22T05:53:08.850Z,58.60
2022-12-22T05:58:10.346Z,59.43
2022-12-22T06:03:11.982Z,59.57
2022-12-22T06:08:13.668Z,59.55
2022-12-22T06:13:15.293Z,59.43
2022-12-22T06:18:16.989Z,59.46
2022-12-22T06:23:18.617Z,59.73
2022-12-22T06:28:20.142Z,60.47
2022-12-22T06:33:21.722Z,60.48
2022-12-22T06:38:23.206Z,60.58
2022-12-22T06:43:25.781Z,60.78
2022-12-22T06:48:27.328Z,61.15
2022-12-22T06:53:28.819Z,61.21
2022-12-22T06:58:30.320Z,61.72
2022-12-22T07:03:31.867Z,61.50
2022-12-22T07:08:33.674Z,61.65
2022-12-22T07:13:35.823Z,61.87
2022-12-22T07:18:41.092Z,61.71
2022-12-22T07:23:42.771Z,61.84
2022-12-22T07:28:44.366Z,62.11
2022-12-22T07:33:45.953Z,62.34
2022-12-22T07:38:50.480Z,62.19
2022-12-22T07:43:57.451Z,62.17
2022-12-22T07:49:17.714Z,62.28
2022-12-22T07:54:19.227Z,62.94
2022-12-22T07:59:21.188Z,62.82
2022-12-22T08:04:22.912Z,63.02
2022-12-22T08:09:24.537Z,63.08
2022-12-22T08:14:26.068Z,62.87
2022-12-22T08:19:27.638Z,62.63
2022-12-22T08:24:29.380Z,62.99
2022-12-22T08:29:37.615Z,63.47
2022-12-22T08:34:40.097Z,63.41
2022-12-22T08:39:43.960Z,63.36
2022-12-22T08:44:47.258Z,63.12
2022-12-22T08:49:49.962Z,62.92
2022-12-22T08:54:51.469Z,63.00
2022-12-22T08:59:52.944Z,63.11
2022-12-22T09:04:54.508Z,63.05
2022-12-22T09:09:57.921Z,63.41
2022-12-22T09:14:59.485Z,62.97
2022-12-22T09:20:00.979Z,63.12
2022-12-22T09:25:02.567Z,63.17
2022-12-22T09:30:04.444Z,63.39
2022-12-22T09:35:06.435Z,63.06
2022-12-22T09:40:08.688Z,63.33
2022-12-22T09:45:20.030Z,63.03
2022-12-22T09:50:24.069Z,62.99
2022-12-22T09:55:25.492Z,62.37
2022-12-22T10:00:28.285Z,62.46
2022-12-22T10:05:38.398Z,62.47
2022-12-22T10:10:40.415Z,62.31
2022-12-22T10:15:42.292Z,62.21
2022-12-22T10:21:07.355Z,62.23
2022-12-22T10:26:28.119Z,62.02
2022-12-22T10:31:34.125Z,61.99
2022-12-22T10:36:36.740Z,61.92
2022-12-22T10:41:43.731Z,61.56
2022-12-22T10:46:49.087Z,61.44
2022-12-22T10:52:13.582Z,61.08
2022-12-22T10:57:15.080Z,61.00
2022-12-22T11:02:39.071Z,61.47
2022-12-22T11:07:43.139Z,61.22
2022-12-22T11:13:09.751Z,60.99
2022-12-22T11:18:17.367Z,61.11
2022-12-22T11:23:21.813Z,61.14
2022-12-22T11:28:36.923Z,61.12
2022-12-22T11:33:53.707Z,61.00
2022-12-22T11:39:07.055Z,60.72
2022-12-22T11:44:23.886Z,61.33
2022-12-22T11:49:53.690Z,61.17
2022-12-22T11:55:14.687Z,61.26
2022-12-22T12:00:19.290Z,61.32
2022-12-22T12:05:40.615Z,61.01
2022-12-22T12:10:47.343Z,61.28
2022-12-22T12:15:57.519Z,61.12
2022-12-22T12:21:28.545Z,61.15
2022-12-22T12:26:54.031Z,61.33
2022-12-22T12:32:04.176Z,61.40
2022-12-22T12:37:26.600Z,61.58
2022-12-22T12:42:44.748Z,61.49
2022-12-22T12:47:46.297Z,61.14
2022-12-22T12:52:48.794Z,61.37
2022-12-22T12:57:51.664Z,61.29
2022-12-22T13:02:57.992Z,61.56
2022-12-22T13:08:14.597Z,61.81
2022-12-22T13:13:25.476Z,61.74
2022-12-22T13:18:28.334Z,61.73
2022-12-22T13:24:06.187Z,62.01
2022-12-22T13:29:07.013Z,62.63
2022-12-22T13:35:28.350Z,62.30
2022-12-22T13:40:25.566Z,62.16
2022-12-22T13:45:36.160Z,62.08
2022-12-22T13:50:42.598Z,62.54
2022-12-22T13:55:47.897Z,62.23
2022-12-22T14:01:01.941Z,62.31
2022-12-22T14:06:18.951Z,62.30
2022-12-22T14:11:21.193Z,62.55
2022-12-22T14:16:22.726Z,62.58
2022-12-22T14:21:24.367Z,63.03
2022-12-22T14:26:29.615Z,62.79
2022-12-22T14:31:31.173Z,63.09
2022-12-22T14:36:40.807Z,62.86
2022-12-22T14:41:51.641Z,63.22
2022-12-22T14:47:06.079Z,63.24
2022-12-22T14:52:15.712Z,63.51
2022-12-22T14:57:25.071Z,63.09
2022-12-22T15:02:39.031Z,63.29
2022-12-22T15:08:09.262Z,63.28
2022-12-22T15:13:18.557Z,63.04
2022-12-22T15:18:25.648Z,62.78
2022-12-22T15:23:27.170Z,62.78
2022-12-22T15:28:28.763Z,63.22
2022-12-22T15:33:31.059Z,63.24
2022-12-22T15:38:38.474Z,63.21
2022-12-22T15:43:58.227Z,63.22
2022-12-22T15:49:00.935Z,62.98
2022-12-22T15:54:04.477Z,62.97
2022-12-22T15:59:06.222Z,63.00
2022-12-22T16:04:07.853Z,62.84
2022-12-22T16:09:18.288Z,63.01
2022-12-22T16:14:21.318Z,62.77
2022-12-22T16:19:22.878Z,63.27
2022-12-22T16:24:35.447Z,62.86
2022-12-22T16:29:37.590Z,62.94
2022-12-22T16:34:39.227Z,63.32
2022-12-22T16:39:40.823Z,63.25
2022-12-22T16:44:43.162Z,62.95
2022-12-22T16:49:46.935Z,62.80
2022-12-22T16:54:52.631Z,63.14
2022-12-22T16:59:54.495Z,62.93
2022-12-22T17:05:01.193Z,63.01
2022-12-22T17:10:02.799Z,63.08
2022-12-22T17:15:04.587Z,62.76
2022-12-22T17:20:06.880Z,62.93
2022-12-22T17:25:17.765Z,63.22
2022-12-22T17:30:22.564Z,62.82
2022-12-22T17:35:29.084Z,63.21
2022-12-22T17:40:31.121Z,63.39
2022-12-22T17:45:32.788Z,62.99
2022-12-22T17:50:35.295Z,63.05
2022-12-22T18:00:58.597Z,62.71
2022-12-22T18:06:00.190Z,63.19
2022-12-22T18:11:02.197Z,63.05
2022-12-22T18:16:04.017Z,62.98
2022-12-22T18:21:08.271Z,62.88
2022-12-22T18:26:41.436Z,62.94
2022-12-22T18:31:44.271Z,62.85
2022-12-22T18:36:47.715Z,63.11
2022-12-22T18:41:49.413Z,62.72
2022-12-22T18:46:53.177Z,62.58
2022-12-22T18:51:57.083Z,62.78
2022-12-22T18:56:58.693Z,62.70
2022-12-22T19:02:19.278Z,62.69
2022-12-22T19:07:23.307Z,62.69
2022-12-22T19:12:25.275Z,62.72
2022-12-22T19:17:28.832Z,62.66
2022-12-22T19:22:30.623Z,62.37
2022-12-22T19:27:33.041Z,62.60
2022-12-22T19:32:42.282Z,61.82
2022-12-22T19:37:48.769Z,61.92
2022-12-22T19:42:53.373Z,61.89
2022-12-22T19:47:57.138Z,61.71
2022-12-22T19:52:59.410Z,62.01
2022-12-22T19:58:02.241Z,61.80
2022-12-22T20:03:05.948Z,61.84
2022-12-22T20:08:07.831Z,61.68
2022-12-22T20:13:21.648Z,61.39
2022-12-22T20:18:27.449Z,61.69
2022-12-22T20:23:31.281Z,61.56
2022-12-22T20:28:36.691Z,61.51
2022-12-22T20:33:38.278Z,61.15
2022-12-22T20:38:41.874Z,61.48
2022-12-22T20:43:43.632Z,60.83
2022-12-22T20:48:55.889Z,61.05
2022-12-22T20:53:58.357Z,60.83
2022-12-22T20:59:12.510Z,60.94
2022-12-22T21:04:15.049Z,61.03
2022-12-22T21:09:17.405Z,60.85
2022-12-22T21:14:19.023Z,60.92
2022-12-22T21:19:20.684Z,60.83
2022-12-22T21:24:22.209Z,60.81
2022-12-22T21:29:26.801Z,60.77
2022-12-22T21:34:28.280Z,60.87
2022-12-22T21:39:39.376Z,60.91
2022-12-22T21:44:41.009Z,60.71
2022-12-22T21:49:42.600Z,60.91
2022-12-22T21:54:44.126Z,61.04
2022-12-22T21:59:45.836Z,60.85
2022-12-22T22:04:54.258Z,60.99
2022-12-22T22:09:56.725Z,60.91
2022-12-22T22:14:58.387Z,61.13
2022-12-22T22:19:59.951Z,60.79
2022-12-22T22:25:01.507Z,61.09
2022-12-22T22:30:04.554Z,60.74
2022-12-22T22:35:06.280Z,61.05
2022-12-22T22:40:09.858Z,61.30
2022-12-22T22:45:15.777Z,61.41
2022-12-22T22:50:18.923Z,61.26
2022-12-22T22:55:20.553Z,60.76
2022-12-22T23:00:22.769Z,61.14
2022-12-22T23:05:24.726Z,61.31
2022-12-22T23:10:26.413Z,61.42
2022-12-22T23:15:28.137Z,61.08
2022-12-22T23:20:29.687Z,61.28
2022-12-22T23:25:31.314Z,60.97
2022-12-22T23:30:32.872Z,61.05
2022-12-22T23:35:39.350Z,60.94
2022-12-22T23:40:52.444Z,61.18
2022-12-22T23:45:54.921Z,60.96
2022-12-22T23:50:56.455Z,61.30
2022-12-22T23:55:58.187Z,61.56
